Time;durP1;ratioP1;P1;durP2;ratioP2;P2;SDS_P1;SDS_P2;PMS_P1;PMS_P2;Temp;Humidity;BMP_temperature;BMP_pressure;BME280_temperature;BME280_humidity;BME280_pressure;Samples;Min_cycle;Max_cycle;Signal;HPM_P1;HPM_P2
2021/01/07 00:01:28;;;;;;;11.90;6.60;;;2.30;97.00;;;;;;5051236;28;20183;-71
2021/01/07 00:03:54;;;;;;;11.67;6.30;;;2.30;97.00;;;;;;5049778;28;20243;-72
2021/01/07 00:06:20;;;;;;;13.33;7.20;;;2.30;97.00;;;;;;5053157;28;20188;-72
2021/01/07 00:08:45;;;;;;;12.53;6.83;;;2.30;96.80;;;;;;5059719;28;20196;-72
2021/01/07 00:11:11;;;;;;;11.83;6.90;;;2.30;96.70;;;;;;5050893;28;20246;-71
2021/01/07 00:13:37;;;;;;;12.10;6.77;;;2.30;96.80;;;;;;5060919;28;20586;-71
2021/01/07 00:16:04;;;;;;;12.15;6.88;;;2.30;96.90;;;;;;5059426;28;20498;-72
2021/01/07 00:18:30;;;;;;;11.07;6.50;;;2.30;97.00;;;;;;5061488;28;20208;-73
2021/01/07 00:20:56;;;;;;;11.90;6.77;;;2.30;97.00;;;;;;5062839;28;20979;-71
2021/01/07 00:23:22;;;;;;;11.67;7.20;;;2.30;97.00;;;;;;5051372;28;20447;-71
2021/01/07 00:25:50;;;;;;;13.73;7.73;;;2.30;96.90;;;;;;5067712;28;20426;-72
2021/01/07 00:28:18;;;;;;;12.23;7.43;;;2.30;96.90;;;;;;5056992;28;20426;-71
2021/01/07 00:30:45;;;;;;;15.15;6.97;;;2.30;97.00;;;;;;5056668;28;20193;-72
2021/01/07 00:33:12;;;;;;;13.20;7.45;;;2.30;97.00;;;;;;5053389;28;20215;-73
2021/01/07 00:35:39;;;;;;;13.35;7.10;;;2.30;97.00;;;;;;5070736;28;20269;-72
2021/01/07 00:38:05;;;;;;;10.70;6.60;;;2.20;97.10;;;;;;5071347;28;20187;-73
2021/01/07 00:40:33;;;;;;;16.33;6.75;;;2.20;97.10;;;;;;5057374;28;20184;-72
2021/01/07 00:42:59;;;;;;;14.18;7.50;;;2.20;97.30;;;;;;5070146;28;20575;-72
2021/01/07 00:45:25;;;;;;;10.93;6.63;;;2.20;97.40;;;;;;5071032;28;20257;-72
2021/01/07 00:47:50;;;;;;;12.90;7.20;;;2.20;97.50;;;;;;5059539;28;20180;-71
2021/01/07 00:50:16;;;;;;;13.63;8.00;;;2.20;97.60;;;;;;5064800;28;20177;-72
2021/01/07 00:52:43;;;;;;;12.40;7.53;;;2.20;97.50;;;;;;5050009;28;20188;-72
2021/01/07 00:55:10;;;;;;;12.80;7.80;;;2.20;97.60;;;;;;5049548;28;20208;-74
2021/01/07 00:57:36;;;;;;;11.77;7.45;;;2.10;97.70;;;;;;5050192;28;20192;-73
2021/01/07 01:00:08;;;;;;;13.07;7.50;;;2.10;97.70;;;;;;5050347;28;20287;-73
2021/01/07 01:02:34;;;;;;;12.25;7.63;;;2.20;97.70;;;;;;5063861;28;20259;-73
2021/01/07 01:05:01;;;;;;;15.60;7.95;;;2.20;97.80;;;;;;5068515;28;20219;-73
2021/01/07 01:07:27;;;;;;;14.02;8.20;;;2.20;97.70;;;;;;5069654;28;20234;-73
2021/01/07 01:09:53;;;;;;;15.73;7.47;;;2.10;97.70;;;;;;5057250;28;20191;-72
2021/01/07 01:12:19;;;;;;;16.50;8.88;;;2.10;97.70;;;;;;5055881;28;20570;-72
2021/01/07 01:14:45;;;;;;;14.13;7.80;;;2.20;97.70;;;;;;5072236;28;20228;-74
2021/01/07 01:17:11;;;;;;;16.05;8.73;;;2.20;97.70;;;;;;5057288;28;20427;-73
2021/01/07 01:19:37;;;;;;;15.53;9.20;;;2.20;97.70;;;;;;5070408;28;20187;-73
2021/01/07 01:22:03;;;;;;;16.83;9.07;;;2.20;97.70;;;;;;5070732;28;20944;-73
2021/01/07 01:24:29;;;;;;;12.80;7.47;;;2.20;97.80;;;;;;5069839;28;20529;-74
2021/01/07 01:26:56;;;;;;;16.00;8.40;;;2.10;97.80;;;;;;5070491;28;20343;-73
2021/01/07 01:29:23;;;;;;;17.98;8.75;;;2.20;97.80;;;;;;5058743;28;20243;-72
2021/01/07 01:31:49;;;;;;;18.48;8.25;;;2.20;97.80;;;;;;5057216;28;20275;-71
2021/01/07 01:34:16;;;;;;;13.60;7.95;;;2.20;97.60;;;;;;5058703;28;20219;-72
2021/01/07 01:36:42;;;;;;;15.98;8.38;;;2.20;97.50;;;;;;5055703;28;20199;-72
2021/01/07 01:39:08;;;;;;;16.03;8.10;;;2.20;97.60;;;;;;5050010;28;20181;-73
2021/01/07 01:41:45;;;;;;;14.40;7.93;;;2.20;97.50;;;;;;5050336;28;20252;-72
2021/01/07 01:44:12;;;;;;;13.48;7.82;;;2.20;97.50;;;;;;5048370;28;20208;-73
2021/01/07 01:46:37;;;;;;;15.65;8.23;;;2.20;97.40;;;;;;5049938;28;20189;-73
2021/01/07 01:49:05;;;;;;;16.93;7.87;;;2.20;97.20;;;;;;5049821;28;20230;-71
2021/01/07 01:51:32;;;;;;;16.27;8.85;;;2.20;97.10;;;;;;5066833;28;20426;-71
2021/01/07 01:53:58;;;;;;;15.75;7.68;;;2.20;97.20;;;;;;5059217;28;20691;-73
2021/01/07 01:56:24;;;;;;;13.93;7.13;;;2.20;97.20;;;;;;5052444;28;20195;-72
2021/01/07 01:58:53;;;;;;;16.50;7.70;;;2.30;97.10;;;;;;5069496;28;20433;-72
2021/01/07 02:01:20;;;;;;;15.10;7.72;;;2.30;97.00;;;;;;5052444;28;20181;-71
2021/01/07 02:03:47;;;;;;;13.98;7.68;;;2.20;97.00;;;;;;5059273;28;20302;-72
2021/01/07 02:06:14;;;;;;;14.27;7.60;;;2.20;97.00;;;;;;5063939;28;20180;-71
2021/01/07 02:08:44;;;;;;;19.95;8.98;;;2.20;97.10;;;;;;5050360;28;20310;-72
2021/01/07 02:11:15;;;;;;;14.65;8.38;;;2.20;97.00;;;;;;5063265;28;20184;-73
2021/01/07 02:13:44;;;;;;;16.75;7.93;;;2.20;97.10;;;;;;5061811;28;20223;-72
2021/01/07 02:16:10;;;;;;;17.02;8.73;;;2.20;97.20;;;;;;5065721;28;20196;-72
2021/01/07 02:18:36;;;;;;;13.63;6.88;;;2.20;97.20;;;;;;5051727;28;20181;-72
2021/01/07 02:21:03;;;;;;;13.27;6.57;;;2.20;97.30;;;;;;5071096;28;20183;-73
2021/01/07 02:23:29;;;;;;;14.57;7.55;;;2.20;97.20;;;;;;5072138;28;20523;-73
2021/01/07 02:25:56;;;;;;;14.55;8.02;;;2.20;97.10;;;;;;5061947;28;20198;-72
2021/01/07 02:28:21;;;;;;;14.30;7.20;;;2.20;97.00;;;;;;5049315;28;20682;-72
2021/01/07 02:30:47;;;;;;;13.73;7.10;;;2.30;97.00;;;;;;5048846;28;20192;-71
2021/01/07 02:33:13;;;;;;;18.67;9.27;;;2.30;96.80;;;;;;5048962;28;20212;-72
2021/01/07 02:35:40;;;;;;;15.87;8.10;;;2.30;96.70;;;;;;5048330;28;20427;-72
2021/01/07 02:38:06;;;;;;;16.15;7.32;;;2.30;96.60;;;;;;5061441;28;20465;-72
2021/01/07 02:40:33;;;;;;;14.82;8.18;;;2.30;96.70;;;;;;5063124;28;20560;-73
2021/01/07 02:43:02;;;;;;;18.80;8.10;;;2.30;96.80;;;;;;5047875;28;20189;-73
2021/01/07 02:45:28;;;;;;;16.52;8.40;;;2.30;97.00;;;;;;5048489;28;20191;-72
2021/01/07 02:47:54;;;;;;;15.03;8.10;;;2.30;97.00;;;;;;5060807;28;20188;-71
2021/01/07 02:50:19;;;;;;;12.53;6.70;;;2.30;97.00;;;;;;5068408;28;20252;-72
2021/01/07 02:52:45;;;;;;;15.17;7.27;;;2.30;97.00;;;;;;5055054;28;20184;-72
2021/01/07 02:55:11;;;;;;;14.03;7.87;;;2.30;96.80;;;;;;5047914;28;20294;-73
2021/01/07 02:57:37;;;;;;;12.30;7.03;;;2.30;96.60;;;;;;5065688;28;20271;-73
2021/01/07 03:00:04;;;;;;;12.30;7.33;;;2.40;96.60;;;;;;5052488;28;20869;-71
2021/01/07 03:02:30;;;;;;;17.08;7.53;;;2.40;96.70;;;;;;5068216;28;20183;-73
2021/01/07 03:04:55;;;;;;;11.63;6.73;;;2.40;96.60;;;;;;5051269;28;20262;-71
2021/01/07 03:07:21;;;;;;;13.10;6.93;;;2.40;96.40;;;;;;5052459;28;20192;-72
2021/01/07 03:09:47;;;;;;;10.20;5.97;;;2.40;96.20;;;;;;5058070;28;20218;-72
2021/01/07 03:12:17;;;;;;;11.98;6.18;;;2.40;96.00;;;;;;5071183;28;20202;-72
2021/01/07 03:14:44;;;;;;;12.27;6.30;;;2.30;95.70;;;;;;5070670;28;20582;-72
2021/01/07 03:17:10;;;;;;;10.95;5.90;;;2.20;95.40;;;;;;5070906;28;20674;-71
2021/01/07 03:19:35;;;;;;;10.02;5.50;;;2.20;95.40;;;;;;5052261;28;20192;-72
2021/01/07 03:22:02;;;;;;;11.17;5.50;;;2.20;95.40;;;;;;5065663;28;20720;-72
2021/01/07 03:24:29;;;;;;;7.68;5.50;;;2.20;95.30;;;;;;5051690;28;20207;-72
2021/01/07 03:26:55;;;;;;;11.30;6.00;;;2.20;95.40;;;;;;5066142;28;20654;-72
2021/01/07 03:29:21;;;;;;;7.80;4.70;;;2.10;95.30;;;;;;5072108;28;20202;-72
2021/01/07 03:31:46;;;;;;;8.93;5.10;;;2.10;95.40;;;;;;5058105;28;20185;-73
2021/01/07 03:34:12;;;;;;;7.10;4.67;;;2.20;95.50;;;;;;5071801;28;20219;-73
2021/01/07 03:36:38;;;;;;;9.00;4.80;;;2.20;95.50;;;;;;5071545;28;20202;-73
2021/01/07 03:39:04;;;;;;;6.23;4.50;;;2.30;95.30;;;;;;5061903;28;20180;-73
2021/01/07 03:41:29;;;;;;;7.10;4.07;;;2.20;95.20;;;;;;5075085;28;20188;-73
2021/01/07 03:43:55;;;;;;;9.40;4.80;;;2.30;94.90;;;;;;5068337;28;20458;-74
2021/01/07 03:46:21;;;;;;;7.53;4.70;;;2.40;94.70;;;;;;5056284;28;20184;-72
2021/01/07 03:48:47;;;;;;;8.63;4.53;;;2.40;94.70;;;;;;5055595;28;20267;-73
2021/01/07 03:51:12;;;;;;;9.07;4.47;;;2.40;94.70;;;;;;5051682;28;20192;-72
2021/01/07 03:53:38;;;;;;;8.53;4.27;;;2.40;94.50;;;;;;5050243;28;20642;-73
2021/01/07 03:56:04;;;;;;;8.43;5.03;;;2.50;94.00;;;;;;5051997;28;20203;-74
2021/01/07 03:58:30;;;;;;;7.40;4.57;;;2.40;93.80;;;;;;5066443;28;20196;-74
2021/01/07 04:00:55;;;;;;;9.07;4.87;;;2.30;93.80;;;;;;5052131;28;20534;-74
2021/01/07 04:03:21;;;;;;;7.93;4.40;;;2.40;94.00;;;;;;5053878;28;20263;-74
2021/01/07 04:05:47;;;;;;;7.83;4.70;;;2.40;94.10;;;;;;5053007;28;20192;-74
2021/01/07 04:08:12;;;;;;;8.00;4.30;;;2.50;93.90;;;;;;5052262;28;20230;-74
2021/01/07 04:10:38;;;;;;;6.23;3.73;;;2.40;93.70;;;;;;5051123;28;20254;-73
2021/01/07 04:13:04;;;;;;;6.47;4.00;;;2.40;93.80;;;;;;5057739;28;20210;-73
2021/01/07 04:15:30;;;;;;;7.17;4.40;;;2.40;93.60;;;;;;5070689;28;20219;-73
2021/01/07 04:17:56;;;;;;;8.57;4.53;;;2.30;93.70;;;;;;5069946;28;20191;-74
2021/01/07 04:20:21;;;;;;;7.37;5.57;;;2.30;93.70;;;;;;5069817;28;20314;-73
2021/01/07 04:22:47;;;;;;;6.83;4.30;;;2.20;93.80;;;;;;5066551;28;20431;-74
2021/01/07 04:25:13;;;;;;;6.73;4.60;;;2.20;93.70;;;;;;5050251;28;20287;-73
2021/01/07 04:27:39;;;;;;;8.87;4.60;;;2.20;93.90;;;;;;5059553;28;20183;-74
2021/01/07 04:30:06;;;;;;;7.87;4.90;;;2.10;94.20;;;;;;5059942;28;20295;-74
2021/01/07 04:32:31;;;;;;;8.43;4.75;;;2.20;94.20;;;;;;5059330;28;20252;-73
2021/01/07 04:34:57;;;;;;;8.53;4.70;;;2.20;94.50;;;;;;5069858;28;20306;-74
2021/01/07 04:37:23;;;;;;;11.20;5.70;;;2.20;94.50;;;;;;5050998;28;20188;-74
2021/01/07 04:39:49;;;;;;;8.93;5.40;;;2.20;94.20;;;;;;5063574;28;20271;-74
2021/01/07 04:42:14;;;;;;;10.13;5.23;;;2.20;94.00;;;;;;5063997;28;20422;-74
2021/01/07 04:44:42;;;;;;;7.83;4.87;;;2.20;94.00;;;;;;5050796;28;20842;-73
2021/01/07 04:47:08;;;;;;;8.15;5.55;;;2.20;93.90;;;;;;5070974;28;20852;-72
2021/01/07 04:49:35;;;;;;;10.73;5.63;;;2.20;94.00;;;;;;5057752;28;20194;-73
2021/01/07 04:52:02;;;;;;;9.50;4.95;;;2.20;94.10;;;;;;5063728;28;20207;-73
2021/01/07 04:54:28;;;;;;;11.40;5.55;;;2.20;94.10;;;;;;5048635;28;20231;-73
2021/01/07 04:56:54;;;;;;;8.67;5.60;;;2.20;94.10;;;;;;5058709;28;20642;-73
2021/01/07 04:59:20;;;;;;;10.45;6.05;;;2.20;93.80;;;;;;5056453;28;20188;-73
2021/01/07 05:01:49;;;;;;;8.00;5.40;;;2.20;93.80;;;;;;5059186;28;20249;-72
2021/01/07 05:04:17;;;;;;;10.68;5.20;;;2.20;94.10;;;;;;5054566;28;20212;-72
2021/01/07 05:06:44;;;;;;;13.77;6.55;;;2.20;94.20;;;;;;5058930;28;20195;-73
2021/01/07 05:09:10;;;;;;;11.90;6.50;;;2.20;94.20;;;;;;5055726;28;20254;-73
2021/01/07 05:11:36;;;;;;;10.60;5.27;;;2.20;94.50;;;;;;5049674;28;20676;-73
2021/01/07 05:14:06;;;;;;;11.90;6.90;;;2.30;94.20;;;;;;5050458;28;20213;-73
2021/01/07 05:16:32;;;;;;;9.73;6.35;;;2.30;93.80;;;;;;5050894;28;20840;-72
2021/01/07 05:19:03;;;;;;;11.02;6.18;;;2.20;93.60;;;;;;5051737;28;20238;-73
2021/01/07 05:21:29;;;;;;;12.60;6.57;;;2.20;93.70;;;;;;5059772;28;20210;-73
2021/01/07 05:23:54;;;;;;;18.30;6.90;;;2.10;93.80;;;;;;5066241;28;20208;-72
2021/01/07 05:26:21;;;;;;;14.77;7.00;;;2.20;94.10;;;;;;5059251;28;20192;-73
2021/01/07 05:28:55;;;;;;;13.95;6.90;;;2.10;94.20;;;;;;5051844;28;20187;-71
2021/01/07 05:31:28;;;;;;;11.38;6.22;;;2.10;94.20;;;;;;5070728;28;20309;-72
2021/01/07 05:33:55;;;;;;;11.82;6.40;;;2.20;94.30;;;;;;5051776;28;20330;-72
2021/01/07 05:36:23;;;;;;;15.73;7.32;;;2.20;94.30;;;;;;5061224;28;20176;-73
2021/01/07 05:38:51;;;;;;;13.52;6.95;;;2.20;94.10;;;;;;5051003;28;20184;-73
2021/01/07 05:41:18;;;;;;;13.07;7.43;;;2.20;94.20;;;;;;5063040;28;20211;-72
2021/01/07 05:43:44;;;;;;;13.77;7.75;;;2.20;94.50;;;;;;5050371;28;20200;-72
2021/01/07 05:46:11;;;;;;;10.97;6.30;;;2.20;94.50;;;;;;5049288;28;20233;-72
2021/01/07 05:48:37;;;;;;;16.15;7.97;;;2.20;94.50;;;;;;5049443;28;20434;-73
2021/01/07 05:51:04;;;;;;;13.27;7.03;;;2.20;94.30;;;;;;5064461;28;20187;-71
2021/01/07 05:53:33;;;;;;;14.95;7.95;;;2.20;94.20;;;;;;5070596;28;20519;-73
2021/01/07 05:55:59;;;;;;;16.02;7.95;;;2.20;94.30;;;;;;5068984;28;20203;-73
2021/01/07 05:58:25;;;;;;;14.73;7.43;;;2.20;94.20;;;;;;5062153;28;20238;-72
2021/01/07 06:00:54;;;;;;;18.35;8.32;;;2.20;94.00;;;;;;5049696;28;20464;-73
2021/01/07 06:03:22;;;;;;;15.65;7.60;;;2.20;94.50;;;;;;5051262;28;20185;-71
2021/01/07 06:05:49;;;;;;;18.45;8.68;;;2.20;94.60;;;;;;5048378;28;20181;-72
2021/01/07 06:08:19;;;;;;;16.75;8.65;;;2.20;94.60;;;;;;5047551;28;20195;-72
2021/01/07 06:10:50;;;;;;;18.00;8.30;;;2.20;94.80;;;;;;5049443;28;20684;-73
2021/01/07 06:13:16;;;;;;;16.48;7.75;;;2.30;94.80;;;;;;5036628;28;20180;-73
2021/01/07 06:15:46;;;;;;;15.60;7.90;;;2.30;94.60;;;;;;5049975;28;20582;-74
2021/01/07 06:18:16;;;;;;;18.10;7.95;;;2.20;94.70;;;;;;5048787;28;20914;-74
2021/01/07 06:20:41;;;;;;;14.45;7.35;;;2.20;94.80;;;;;;5049089;28;20665;-74
2021/01/07 06:23:18;;;;;;;14.90;8.20;;;2.20;94.70;;;;;;5057860;28;20277;-74
2021/01/07 06:25:45;;;;;;;15.55;7.50;;;2.20;94.50;;;;;;5052017;28;20184;-75
2021/01/07 06:28:26;;;;;;;17.63;8.45;;;2.20;94.60;;;;;;5050486;28;20188;-73
2021/01/07 06:30:55;;;;;;;23.33;10.25;;;2.10;94.80;;;;;;5051825;28;20195;-73
2021/01/07 06:33:22;;;;;;;16.83;8.05;;;2.10;94.90;;;;;;5052684;28;20192;-73
2021/01/07 06:35:48;;;;;;;17.08;8.73;;;2.10;94.90;;;;;;5038789;28;20180;-74
2021/01/07 06:38:24;;;;;;;14.53;8.13;;;2.10;95.00;;;;;;5049013;28;20630;-73
2021/01/07 06:40:50;;;;;;;22.95;9.32;;;2.10;95.10;;;;;;5045223;28;20179;-73
2021/01/07 06:43:21;;;;;;;20.40;9.17;;;2.10;95.00;;;;;;5054931;28;20571;-72
2021/01/07 06:45:51;;;;;;;17.55;9.27;;;2.10;95.00;;;;;;5047936;28;20782;-74
2021/01/07 06:48:24;;;;;;;19.27;9.70;;;2.10;95.00;;;;;;5048115;28;20185;-73
2021/01/07 06:51:01;;;;;;;20.10;9.00;;;2.10;94.90;;;;;;5048852;28;20188;-73
2021/01/07 06:53:27;;;;;;;19.60;10.02;;;2.10;94.90;;;;;;5048959;28;20258;-73
2021/01/07 06:56:14;;;;;;;21.55;9.80;;;2.10;94.70;;;;;;5047264;28;20768;-72
2021/01/07 06:58:41;;;;;;;23.00;9.88;;;2.00;94.80;;;;;;5048441;28;20196;-72
2021/01/07 07:01:15;;;;;;;20.98;9.55;;;2.00;94.90;;;;;;5063100;28;20183;-74
2021/01/07 07:03:48;;;;;;;23.25;10.43;;;2.00;95.00;;;;;;5067415;28;20207;-73
2021/01/07 07:06:17;;;;;;;24.33;9.77;;;2.00;95.10;;;;;;5067630;28;20219;-74
2021/01/07 07:08:46;;;;;;;21.50;9.52;;;2.00;95.10;;;;;;5056279;28;20193;-74
2021/01/07 07:11:21;;;;;;;22.13;10.82;;;2.10;95.40;;;;;;5053209;28;20267;-73
2021/01/07 07:13:51;;;;;;;17.23;9.32;;;2.10;95.30;;;;;;5055319;28;20574;-72
2021/01/07 07:16:18;;;;;;;18.27;9.82;;;2.10;95.20;;;;;;5048956;28;20238;-73
2021/01/07 07:18:44;;;;;;;18.38;9.73;;;2.20;95.00;;;;;;5050675;28;20181;-73
2021/01/07 07:21:15;;;;;;;20.73;9.87;;;2.20;94.70;;;;;;5036283;28;20184;-72
2021/01/07 07:23:42;;;;;;;22.63;9.75;;;2.10;94.70;;;;;;5063786;28;20242;-75
2021/01/07 07:26:12;;;;;;;23.55;9.82;;;2.10;94.90;;;;;;5050240;28;20232;-74
2021/01/07 07:28:42;;;;;;;17.58;9.25;;;2.10;95.10;;;;;;5048499;28;20207;-74
2021/01/07 07:31:08;;;;;;;17.30;9.43;;;2.10;95.30;;;;;;5048992;28;20216;-73
2021/01/07 07:33:39;;;;;;;22.70;10.80;;;2.10;95.20;;;;;;5048482;28;20645;-73
2021/01/07 07:36:07;;;;;;;23.40;11.35;;;2.20;95.40;;;;;;5048101;28;20917;-74
2021/01/07 07:38:36;;;;;;;25.27;11.48;;;2.20;95.50;;;;;;5050897;28;20610;-73
2021/01/07 07:41:07;;;;;;;25.05;10.23;;;2.20;95.50;;;;;;5061130;28;20180;-74
2021/01/07 07:43:34;;;;;;;18.77;9.20;;;2.20;95.30;;;;;;5054919;28;20196;-73
2021/01/07 07:46:01;;;;;;;18.40;8.75;;;2.20;95.30;;;;;;5051176;28;20215;-73
2021/01/07 07:48:28;;;;;;;20.30;8.90;;;2.30;95.20;;;;;;5051399;28;20600;-74
2021/01/07 07:51:13;;;;;;;24.75;9.38;;;2.30;95.10;;;;;;5052123;28;20234;-73
2021/01/07 07:53:40;;;;;;;21.13;8.80;;;2.20;95.10;;;;;;5039713;28;20228;-74
2021/01/07 07:56:20;;;;;;;24.17;10.32;;;2.20;94.90;;;;;;5051267;28;20188;-74
2021/01/07 07:58:46;;;;;;;20.50;8.95;;;2.30;94.70;;;;;;5050291;28;20671;-73
2021/01/07 08:01:11;;;;;;;18.67;8.70;;;2.30;94.70;;;;;;5054004;28;20184;-73
2021/01/07 08:03:37;;;;;;;21.90;10.10;;;2.30;94.70;;;;;;5054819;28;20216;-75
2021/01/07 08:06:03;;;;;;;19.90;10.30;;;2.20;94.60;;;;;;5053791;28;20188;-72
2021/01/07 08:08:30;;;;;;;20.33;9.67;;;2.20;94.50;;;;;;5053557;28;20519;-73
2021/01/07 08:10:58;;;;;;;23.50;10.57;;;2.20;94.70;;;;;;5052667;28;20427;-74
2021/01/07 08:13:25;;;;;;;21.65;11.02;;;2.30;94.50;;;;;;5051409;28;20188;-74
2021/01/07 08:15:56;;;;;;;23.23;11.90;;;2.30;94.50;;;;;;5051853;28;20275;-75
2021/01/07 08:18:24;;;;;;;21.75;11.02;;;2.30;94.50;;;;;;5054419;28;20212;-73
2021/01/07 08:20:52;;;;;;;22.13;10.68;;;2.30;94.40;;;;;;5054993;28;20203;-74
2021/01/07 08:23:18;;;;;;;18.85;8.77;;;2.30;94.20;;;;;;5054631;28;20180;-73
2021/01/07 08:25:46;;;;;;;22.35;10.50;;;2.30;94.40;;;;;;5068425;28;20176;-73
2021/01/07 08:28:43;;;;;;;22.88;10.25;;;2.30;94.30;;;;;;5059734;28;20303;-74
2021/01/07 08:31:14;;;;;;;22.63;10.52;;;2.30;94.50;;;;;;5040177;28;20215;-73
2021/01/07 08:33:40;;;;;;;22.30;9.73;;;2.40;94.70;;;;;;5049280;28;20282;-73
2021/01/07 08:36:15;;;;;;;22.37;10.10;;;2.40;94.80;;;;;;5059071;28;20192;-73
2021/01/07 08:38:47;;;;;;;18.85;9.85;;;2.40;94.80;;;;;;5066320;28;20430;-73
2021/01/07 08:41:21;;;;;;;21.27;9.75;;;2.40;94.80;;;;;;5050582;28;20752;-74
2021/01/07 08:43:52;;;;;;;25.42;10.98;;;2.50;94.80;;;;;;5062260;28;20654;-74
2021/01/07 08:46:21;;;;;;;24.88;9.35;;;2.50;94.70;;;;;;5062592;28;20210;-73
2021/01/07 08:49:02;;;;;;;20.80;9.60;;;2.50;94.30;;;;;;5048851;28;20612;-73
2021/01/07 08:51:35;;;;;;;20.88;9.50;;;2.50;94.20;;;;;;5063656;28;20185;-74
2021/01/07 08:54:12;;;;;;;18.38;9.38;;;2.50;94.10;;;;;;5049112;28;20270;-74
2021/01/07 08:56:47;;;;;;;19.75;9.98;;;2.50;93.80;;;;;;5050362;28;20189;-73
2021/01/07 08:59:17;;;;;;;19.17;8.85;;;2.60;93.70;;;;;;5063501;28;20195;-74
2021/01/07 09:01:44;;;;;;;20.55;8.65;;;2.50;93.50;;;;;;5050596;28;20267;-74
2021/01/07 09:04:30;;;;;;;17.38;7.85;;;2.50;93.30;;;;;;5063735;28;20219;-74
2021/01/07 09:07:09;;;;;;;18.02;8.02;;;2.50;93.00;;;;;;5070260;28;20303;-73
2021/01/07 09:09:42;;;;;;;17.50;8.40;;;2.60;92.90;;;;;;5051840;28;20199;-72
2021/01/07 09:12:22;;;;;;;17.98;9.20;;;2.50;92.30;;;;;;5051807;28;20184;-74
2021/01/07 09:15:12;;;;;;;15.77;7.35;;;2.60;92.30;;;;;;5051115;28;20261;-75
2021/01/07 09:17:39;;;;;;;16.30;7.82;;;2.70;92.10;;;;;;5050546;28;20185;-74
2021/01/07 09:20:09;;;;;;;18.00;8.23;;;2.70;91.60;;;;;;5049646;28;20176;-73
2021/01/07 09:22:35;;;;;;;16.35;7.97;;;2.80;91.60;;;;;;5066882;28;20184;-73
2021/01/07 09:25:01;;;;;;;18.40;8.35;;;2.80;91.50;;;;;;5067337;28;20215;-73
2021/01/07 09:27:27;;;;;;;15.53;7.03;;;2.90;91.20;;;;;;5056744;28;20305;-73
2021/01/07 09:29:53;;;;;;;15.98;7.60;;;3.00;90.80;;;;;;5058615;28;20192;-73
2021/01/07 09:32:19;;;;;;;12.77;7.17;;;3.00;90.70;;;;;;5050478;28;20192;-74
2021/01/07 09:34:45;;;;;;;17.00;7.70;;;3.00;90.10;;;;;;5060099;28;20645;-73
2021/01/07 09:37:17;;;;;;;12.90;7.47;;;2.90;90.00;;;;;;5050962;28;20568;-75
2021/01/07 09:39:44;;;;;;;15.02;8.20;;;2.90;90.20;;;;;;5063053;28;20184;-75
2021/01/07 09:42:11;;;;;;;18.10;8.80;;;2.90;89.70;;;;;;5070462;28;20188;-74
2021/01/07 09:44:37;;;;;;;16.10;7.95;;;3.00;90.30;;;;;;5063878;28;20233;-73
2021/01/07 09:47:04;;;;;;;18.23;7.50;;;3.00;90.20;;;;;;5063259;28;20195;-74
2021/01/07 09:49:31;;;;;;;15.50;8.30;;;3.00;90.20;;;;;;5050043;28;20260;-73
2021/01/07 09:51:57;;;;;;;13.13;7.28;;;3.00;90.10;;;;;;5070423;28;20194;-74
2021/01/07 09:54:24;;;;;;;20.27;8.63;;;3.10;90.20;;;;;;5068697;28;20219;-73
2021/01/07 09:56:55;;;;;;;17.52;9.40;;;3.20;90.30;;;;;;5048860;28;20195;-73
2021/01/07 09:59:22;;;;;;;19.85;9.02;;;3.30;90.30;;;;;;5051069;28;20219;-74
2021/01/07 10:02:01;;;;;;;18.17;9.35;;;3.40;89.70;;;;;;5060489;28;20651;-74
2021/01/07 10:04:29;;;;;;;19.58;7.93;;;3.30;89.30;;;;;;5048924;28;20228;-74
2021/01/07 10:06:56;;;;;;;14.75;8.07;;;3.30;89.50;;;;;;5049118;28;20647;-75
2021/01/07 10:09:22;;;;;;;13.88;7.90;;;3.30;88.70;;;;;;5049147;28;20236;-72
2021/01/07 10:11:52;;;;;;;19.03;8.80;;;3.40;88.90;;;;;;5052068;28;20188;-74
2021/01/07 10:14:19;;;;;;;15.10;8.00;;;3.40;89.30;;;;;;5048072;28;20463;-73
2021/01/07 10:16:58;;;;;;;17.48;7.85;;;3.40;88.70;;;;;;5051713;28;20188;-73
2021/01/07 10:19:26;;;;;;;16.27;8.77;;;3.40;88.70;;;;;;5057233;28;20186;-73
2021/01/07 10:22:00;;;;;;;20.17;9.90;;;3.30;88.70;;;;;;5057453;28;20497;-74
2021/01/07 10:24:27;;;;;;;16.48;9.00;;;3.30;89.30;;;;;;5055753;28;20211;-73
2021/01/07 10:26:57;;;;;;;18.65;8.48;;;3.40;89.50;;;;;;5067772;28;20534;-72
2021/01/07 10:29:24;;;;;;;18.38;8.13;;;3.50;89.20;;;;;;5037607;28;20180;-73
2021/01/07 10:31:50;;;;;;;19.95;8.50;;;3.60;88.70;;;;;;5049171;28;20336;-74
2021/01/07 10:34:17;;;;;;;16.67;8.63;;;3.60;88.40;;;;;;5055140;28;21072;-74
2021/01/07 10:36:45;;;;;;;15.88;10.15;;;3.50;88.00;;;;;;5068365;28;20211;-73
2021/01/07 10:39:14;;;;;;;14.90;7.70;;;3.50;87.40;;;;;;5068648;28;20264;-73
2021/01/07 10:41:44;;;;;;;12.73;7.35;;;3.50;87.00;;;;;;5054291;28;20227;-73
2021/01/07 10:44:11;;;;;;;18.15;7.53;;;3.50;86.60;;;;;;5068628;28;20725;-74
2021/01/07 10:46:37;;;;;;;12.10;7.47;;;3.50;86.50;;;;;;5068707;28;20183;-74
2021/01/07 10:49:03;;;;;;;15.00;8.25;;;3.30;85.50;;;;;;5068557;28;20186;-74
2021/01/07 10:51:46;;;;;;;16.60;8.00;;;3.40;85.90;;;;;;5050802;28;20196;-73
2021/01/07 10:54:40;;;;;;;18.55;8.23;;;3.40;86.30;;;;;;5060270;28;20510;-72
2021/01/07 10:57:44;;;;;;;18.57;9.17;;;3.50;86.50;;;;;;4997224;28;20287;-74
2021/01/07 11:00:30;;;;;;;15.60;7.28;;;3.60;86.30;;;;;;5049591;28;20418;-73
2021/01/07 11:03:27;;;;;;;16.45;7.93;;;3.60;85.20;;;;;;5062806;28;20258;-74
2021/01/07 11:06:06;;;;;;;14.30;6.60;;;3.70;84.90;;;;;;5047551;28;20216;-74
2021/01/07 11:08:38;;;;;;;15.03;7.50;;;3.70;83.30;;;;;;5052028;28;20423;-75
2021/01/07 11:11:31;;;;;;;12.80;6.33;;;3.70;84.70;;;;;;5065751;28;20431;-74
2021/01/07 11:14:07;;;;;;;15.60;6.68;;;3.80;83.40;;;;;;5065710;28;20535;-73
2021/01/07 11:16:49;;;;;;;13.15;6.60;;;3.90;82.80;;;;;;5063796;28;20180;-73
2021/01/07 11:19:23;;;;;;;14.85;7.45;;;3.90;82.20;;;;;;5059391;28;20176;-74
2021/01/07 11:22:15;;;;;;;18.90;7.83;;;3.80;81.80;;;;;;5064767;28;20171;-74
2021/01/07 11:24:42;;;;;;;11.53;6.10;;;3.80;83.00;;;;;;5044331;28;20457;-75
2021/01/07 11:27:11;;;;;;;13.00;5.78;;;3.80;80.50;;;;;;5065530;28;20413;-76
2021/01/07 11:29:38;;;;;;;10.63;5.85;;;3.80;79.50;;;;;;5052623;28;20238;-73
2021/01/07 11:32:04;;;;;;;10.80;5.30;;;3.90;79.00;;;;;;5053879;28;20222;-75
2021/01/07 11:34:32;;;;;;;11.13;5.77;;;3.90;78.60;;;;;;5050413;28;20483;-74
2021/01/07 11:37:03;;;;;;;11.87;5.43;;;3.90;77.30;;;;;;5067616;28;20422;-75
2021/01/07 11:39:47;;;;;;;11.30;5.87;;;3.70;77.70;;;;;;5061673;28;20411;-75
2021/01/07 11:42:43;;;;;;;12.30;5.97;;;3.50;79.60;;;;;;5066037;28;20511;-74
2021/01/07 11:45:19;;;;;;;10.55;6.00;;;3.60;80.00;;;;;;5065353;28;20381;-75
2021/01/07 11:47:56;;;;;;;12.57;6.72;;;3.70;79.70;;;;;;5052262;28;20180;-76
2021/01/07 11:50:26;;;;;;;12.98;6.82;;;3.90;79.70;;;;;;5040040;28;20305;-74
2021/01/07 11:52:55;;;;;;;11.00;5.90;;;3.90;79.30;;;;;;5054040;28;20176;-73
2021/01/07 11:55:22;;;;;;;14.67;6.40;;;3.90;79.50;;;;;;5071792;28;20226;-75
2021/01/07 11:57:48;;;;;;;14.50;7.20;;;4.00;79.60;;;;;;5057018;28;20415;-75
2021/01/07 12:00:18;;;;;;;12.10;5.77;;;4.00;79.60;;;;;;5051972;28;20578;-75
2021/01/07 12:02:47;;;;;;;15.93;6.90;;;4.00;79.60;;;;;;5066517;28;20430;-74
2021/01/07 12:05:17;;;;;;;12.40;6.47;;;4.00;80.00;;;;;;5071327;28;20962;-74
2021/01/07 12:08:14;;;;;;;15.27;6.70;;;3.90;80.90;;;;;;5054542;28;20195;-75
2021/01/07 12:10:42;;;;;;;13.13;6.82;;;3.90;81.20;;;;;;5057036;28;20482;-75
2021/01/07 12:13:43;;;;;;;10.63;6.10;;;3.80;80.30;;;;;;5052208;28;20181;-74
2021/01/07 12:16:24;;;;;;;14.43;7.07;;;3.70;80.80;;;;;;4997765;28;20508;-76
2021/01/07 12:18:55;;;;;;;15.50;7.40;;;3.70;81.80;;;;;;5051604;28;20426;-74
2021/01/07 12:21:22;;;;;;;13.07;7.00;;;3.80;82.40;;;;;;5050828;28;20437;-75
2021/01/07 12:23:48;;;;;;;13.63;6.60;;;3.80;81.90;;;;;;5058968;28;20930;-76
2021/01/07 12:26:14;;;;;;;15.47;7.70;;;3.80;81.90;;;;;;5064836;28;20505;-76
2021/01/07 12:28:43;;;;;;;14.27;7.03;;;3.80;82.40;;;;;;5052701;28;20828;-76
2021/01/07 12:31:13;;;;;;;14.20;7.27;;;3.80;81.70;;;;;;5059218;28;20501;-74
2021/01/07 12:34:00;;;;;;;14.85;7.38;;;3.80;82.50;;;;;;5045001;28;20469;-75
2021/01/07 12:37:00;;;;;;;16.63;7.63;;;3.70;82.80;;;;;;5050959;28;20188;-75
2021/01/07 12:40:03;;;;;;;17.85;7.95;;;3.70;83.10;;;;;;5029084;28;20610;-75
2021/01/07 12:42:33;;;;;;;15.07;7.47;;;3.60;83.30;;;;;;5070943;28;20240;-76
2021/01/07 12:45:02;;;;;;;12.55;6.72;;;3.50;83.70;;;;;;5037339;28;20433;-75
2021/01/07 12:47:28;;;;;;;13.32;7.63;;;3.50;84.00;;;;;;5051102;28;20216;-75
2021/01/07 12:49:57;;;;;;;13.03;6.63;;;3.60;83.80;;;;;;5058435;28;20292;-74
2021/01/07 12:52:24;;;;;;;14.67;7.50;;;3.60;84.10;;;;;;5069913;28;20191;-76
2021/01/07 12:54:51;;;;;;;15.37;7.57;;;3.60;84.10;;;;;;5062028;28;20462;-75
2021/01/07 12:57:24;;;;;;;18.27;8.85;;;3.60;83.70;;;;;;5060685;28;20458;-73
2021/01/07 13:00:09;;;;;;;18.65;8.52;;;3.50;84.40;;;;;;5060483;28;20292;-75